Time,TemperatureF,DewpointF,PressureIn,WindDirection,WindDirectionDegrees,WindSpeedMPH,WindSpeedGustMPH,Humidity,HourlyPrecipIn,Conditions,Clouds,dailyrainin,SoftwareType,DateUTC
2013-09-06 00:00:00,62.4,60.0,29.97,SSW,209,0.0,5.0,92,0.07,,---,0.00,VWS V14.01,2013-09-06 07:00:00,
2013-09-06 00:01:00,62.4,60.0,29.97,SSW,209,0.0,5.0,92,0.07,,---,0.21,VWS V14.01,2013-09-06 07:01:00,
2013-09-06 00:06:00,62.4,60.0,29.98,SSW,209,0.0,0.0,92,0.07,,---,0.00,VWS V14.01,2013-09-06 07:06:00,
2013-09-06 00:11:00,62.5,60.2,29.98,ESE,106,11.0,11.0,92,0.07,,---,0.00,VWS V14.01,2013-09-06 07:11:00,
2013-09-06 00:15:00,62.4,61.0,29.98,SE,146,0.0,11.0,95,0.07,,---,0.00,VWS V14.01,2013-09-06 07:15:00,
2013-09-06 00:16:00,62.4,61.0,29.98,SE,146,0.0,11.0,95,0.07,,---,0.00,VWS V14.01,2013-09-06 07:16:00,
2013-09-06 00:21:00,62.2,60.8,29.99,SE,127,0.0,0.0,95,0.10,,---,0.04,VWS V14.01,2013-09-06 07:21:00,
2013-09-06 00:26:00,62.2,61.0,29.99,SE,127,0.0,0.0,96,0.14,,---,0.08,VWS V14.01,2013-09-06 07:26:00,
2013-09-06 00:30:00,62.0,60.8,29.99,ESE,123,0.0,0.0,96,0.17,,---,0.11,VWS V14.01,2013-09-06 07:30:00,
2013-09-06 00:31:00,62.1,61.0,29.99,ESE,119,0.0,0.0,96,0.17,,---,0.11,VWS V14.01,2013-09-06 07:31:00,
2013-09-06 00:36:00,61.9,60.8,29.99,ESE,119,0.0,0.0,96,0.18,,---,0.14,VWS V14.01,2013-09-06 07:36:00,
2013-09-06 00:41:00,61.9,60.8,30.00,South,169,0.0,0.0,96,0.19,,---,0.15,VWS V14.01,2013-09-06 07:41:00,
2013-09-06 00:45:00,61.7,60.5,30.00,SSE,149,0.0,0.0,96,0.23,,---,0.19,VWS V14.01,2013-09-06 07:45:00,
2013-09-06 00:46:00,61.7,60.5,30.00,SSE,155,0.0,0.0,96,0.23,,---,0.19,VWS V14.01,2013-09-06 07:46:00,
2013-09-06 00:51:00,61.6,60.5,29.99,ESE,117,0.0,0.0,96,0.25,,---,0.22,VWS V14.01,2013-09-06 07:51:00,
2013-09-06 00:56:00,61.5,60.3,29.99,SE,132,0.0,0.0,96,0.29,,---,0.26,VWS V14.01,2013-09-06 07:56:00,
2013-09-06 01:00:00,61.5,60.3,30.00,East,99,0.0,0.0,96,0.33,,---,0.30,VWS V14.01,2013-09-06 08:00:00,
2013-09-06 01:01:00,61.5,60.3,30.00,East,99,0.0,0.0,96,0.32,,---,0.29,VWS V14.01,2013-09-06 08:01:00,
2013-09-06 01:06:00,61.5,60.3,30.00,East,97,0.0,0.0,96,0.32,,---,0.32,VWS V14.01,2013-09-06 08:06:00,
2013-09-06 01:11:00,61.6,60.7,30.00,East,97,0.0,0.0,97,0.34,,---,0.34,VWS V14.01,2013-09-06 08:11:00,
2013-09-06 01:15:00,61.6,60.7,30.00,East,97,0.0,0.0,97,0.38,,---,0.38,VWS V14.01,2013-09-06 08:15:00,
2013-09-06 01:16:00,61.6,60.7,30.00,East,97,0.0,0.0,97,0.37,,---,0.37,VWS V14.01,2013-09-06 08:16:00,
2013-09-06 01:21:00,61.6,60.7,30.00,ESE,107,0.0,0.0,97,0.43,,---,0.43,VWS V14.01,2013-09-06 08:21:00,
2013-09-06 01:26:00,61.5,60.6,30.00,ESE,107,0.0,0.0,97,0.47,,---,0.47,VWS V14.01,2013-09-06 08:26:00,
2013-09-06 01:30:00,61.4,60.5,29.99,SSE,148,0.0,0.0,97,0.52,,---,0.52,VWS V14.01,2013-09-06 08:30:00,
2013-09-06 01:31:00,61.4,60.5,29.99,SSE,148,0.0,0.0,97,0.52,,---,0.52,VWS V14.01,2013-09-06 08:31:00,
2013-09-06 01:36:00,61.4,60.5,29.99,SW,225,0.0,0.0,97,0.45,,---,0.56,VWS V14.01,2013-09-06 08:36:00,
2013-09-06 01:41:00,61.4,60.5,29.99,SW,223,0.0,0.0,97,0.48,,---,0.59,VWS V14.01,2013-09-06 08:41:00,
2013-09-06 01:45:00,61.3,60.4,29.98,SSW,202,0.0,0.0,97,0.52,,---,0.63,VWS V14.01,2013-09-06 08:45:00,
2013-09-06 01:46:00,61.3,60.4,29.98,SSW,202,0.0,0.0,97,0.52,,---,0.63,VWS V14.01,2013-09-06 08:46:00,
2013-09-06 01:51:00,61.2,60.3,29.99,SSE,167,0.0,0.0,97,0.46,,---,0.65,VWS V14.01,2013-09-06 08:51:00,
2013-09-06 01:56:00,61.2,60.3,29.99,SSE,167,0.0,0.0,97,0.48,,---,0.67,VWS V14.01,2013-09-06 08:56:00,
2013-09-06 02:00:00,61.3,60.4,29.99,SSE,167,0.0,0.0,97,0.49,,---,0.68,VWS V14.01,2013-09-06 09:00:00,
2013-09-06 02:01:00,61.3,60.4,29.99,SSE,167,0.0,0.0,97,0.49,,---,0.68,VWS V14.01,2013-09-06 09:01:00,
2013-09-06 02:06:00,61.3,60.4,29.98,SSE,167,0.0,0.0,97,0.39,,---,0.69,VWS V14.01,2013-09-06 09:06:00,
2013-09-06 02:11:00,61.3,60.4,29.98,SSE,167,0.0,0.0,97,0.39,,---,0.69,VWS V14.01,2013-09-06 09:11:00,
2013-09-06 02:15:00,61.2,60.3,29.97,SSE,167,0.0,0.0,97,0.41,,---,0.71,VWS V14.01,2013-09-06 09:15:00,
2013-09-06 02:16:00,61.2,60.3,29.97,SSE,167,0.0,0.0,97,0.41,,---,0.71,VWS V14.01,2013-09-06 09:16:00,
2013-09-06 02:21:00,61.1,60.2,29.97,SSE,167,0.0,0.0,97,0.35,,---,0.73,VWS V14.01,2013-09-06 09:21:00,
2013-09-06 02:26:00,61.0,60.2,29.97,South,176,0.0,0.0,97,0.36,,---,0.74,VWS V14.01,2013-09-06 09:26:00,
2013-09-06 02:30:00,61.0,60.2,29.96,South,181,0.0,0.0,97,0.38,,---,0.76,VWS V14.01,2013-09-06 09:30:00,
2013-09-06 02:31:00,61.0,60.2,29.96,South,181,0.0,0.0,97,0.38,,---,0.76,VWS V14.01,2013-09-06 09:31:00,
2013-09-06 02:36:00,60.9,60.0,29.96,SSE,153,0.0,0.0,97,0.26,,---,0.78,VWS V14.01,2013-09-06 09:36:00,
2013-09-06 02:41:00,60.9,60.0,29.95,SSE,152,0.0,0.0,97,0.27,,---,0.79,VWS V14.01,2013-09-06 09:41:00,
2013-09-06 02:45:00,60.8,60.0,29.95,South,187,0.0,0.0,97,0.29,,---,0.81,VWS V14.01,2013-09-06 09:45:00,
2013-09-06 02:46:00,60.8,60.0,29.95,South,188,0.0,0.0,97,0.29,,---,0.81,VWS V14.01,2013-09-06 09:46:00,
2013-09-06 02:51:00,60.8,60.2,29.95,SSE,150,0.0,0.0,98,0.18,,---,0.81,VWS V14.01,2013-09-06 09:51:00,
2013-09-06 02:56:00,60.8,60.2,29.96,SSE,161,0.0,0.0,98,0.19,,---,0.82,VWS V14.01,2013-09-06 09:56:00,
2013-09-06 03:00:00,60.8,60.2,29.96,SSE,165,0.0,0.0,98,0.20,,---,0.83,VWS V14.01,2013-09-06 10:00:00,
2013-09-06 03:01:00,60.8,60.2,29.96,SSE,165,0.0,0.0,98,0.20,,---,0.83,VWS V14.01,2013-09-06 10:01:00,
2013-09-06 03:06:00,60.8,60.2,29.96,South,182,0.0,0.0,98,0.15,,---,0.83,VWS V14.01,2013-09-06 10:06:00,
2013-09-06 03:11:00,60.8,60.2,29.97,SSW,202,0.0,0.0,98,0.16,,---,0.84,VWS V14.01,2013-09-06 10:11:00,
2013-09-06 03:15:00,60.8,60.2,29.97,South,190,0.0,0.0,98,0.17,,---,0.85,VWS V14.01,2013-09-06 10:15:00,
2013-09-06 03:16:00,60.8,60.2,29.97,South,190,0.0,0.0,98,0.17,,---,0.85,VWS V14.01,2013-09-06 10:16:00,
2013-09-06 03:21:00,60.9,60.3,29.97,SSW,193,0.0,0.0,98,0.14,,---,0.85,VWS V14.01,2013-09-06 10:21:00,
2013-09-06 03:26:00,60.9,60.3,29.97,SSW,193,0.0,0.0,98,0.14,,---,0.85,VWS V14.01,2013-09-06 10:26:00,
2013-09-06 03:30:00,60.9,60.3,29.97,SSW,193,0.0,0.0,98,0.14,,---,0.85,VWS V14.01,2013-09-06 10:30:00,
2013-09-06 03:31:00,60.9,60.3,29.97,SSW,193,0.0,0.0,98,0.14,,---,0.85,VWS V14.01,2013-09-06 10:31:00,
2013-09-06 03:36:00,60.9,60.3,29.97,South,190,0.0,0.0,98,0.10,,---,0.86,VWS V14.01,2013-09-06 10:36:00,
2013-09-06 03:41:00,60.9,60.3,29.97,South,189,0.0,0.0,98,0.10,,---,0.86,VWS V14.01,2013-09-06 10:41:00,
2013-09-06 03:45:00,60.9,60.3,29.97,South,171,0.0,0.0,98,0.11,,---,0.87,VWS V14.01,2013-09-06 10:45:00,
2013-09-06 03:46:00,60.9,60.3,29.97,South,183,0.0,0.0,98,0.11,,---,0.87,VWS V14.01,2013-09-06 10:46:00,
2013-09-06 03:51:00,60.9,60.3,29.96,South,171,0.0,0.0,98,0.06,,---,0.87,VWS V14.01,2013-09-06 10:51:00,
2013-09-06 03:56:00,60.9,60.3,29.97,South,171,0.0,0.0,98,0.06,,---,0.87,VWS V14.01,2013-09-06 10:56:00,
2013-09-06 04:00:00,61.0,60.4,29.97,South,171,0.0,0.0,98,0.06,,---,0.87,VWS V14.01,2013-09-06 11:00:00,
2013-09-06 04:01:00,60.9,60.3,29.97,South,171,0.0,0.0,98,0.06,,---,0.87,VWS V14.01,2013-09-06 11:01:00,
2013-09-06 04:06:00,60.9,60.3,29.97,South,171,0.0,0.0,98,0.04,,---,0.87,VWS V14.01,2013-09-06 11:06:00,
2013-09-06 04:11:00,60.8,60.2,29.97,South,171,0.0,0.0,98,0.05,,---,0.88,VWS V14.01,2013-09-06 11:11:00,
2013-09-06 04:15:00,60.8,60.2,29.97,South,170,0.0,0.0,98,0.05,,---,0.88,VWS V14.01,2013-09-06 11:15:00,
2013-09-06 04:16:00,60.8,60.2,29.97,South,170,0.0,0.0,98,0.05,,---,0.88,VWS V14.01,2013-09-06 11:16:00,
2013-09-06 04:21:00,60.8,60.2,29.97,South,170,0.0,0.0,98,0.03,,---,0.88,VWS V14.01,2013-09-06 11:21:00,
2013-09-06 04:26:00,60.8,60.2,29.97,South,170,0.0,0.0,98,0.03,,---,0.88,VWS V14.01,2013-09-06 11:26:00,
2013-09-06 04:30:00,60.9,60.3,29.97,South,170,0.0,0.0,98,0.03,,---,0.88,VWS V14.01,2013-09-06 11:30:00,
2013-09-06 04:35:00,60.9,60.3,29.97,South,170,0.0,0.0,98,0.03,,---,0.88,VWS V14.01,2013-09-06 11:35:00,
2013-09-06 04:40:00,60.8,60.2,29.97,South,170,0.0,0.0,98,0.03,,---,0.88,VWS V14.01,2013-09-06 11:40:00,
2013-09-06 04:45:00,60.9,60.3,29.97,South,170,0.0,0.0,98,0.03,,---,0.88,VWS V14.01,2013-09-06 11:45:00,
2013-09-06 04:50:00,61.0,60.4,29.97,South,170,0.0,0.0,98,0.01,,---,0.88,VWS V14.01,2013-09-06 11:50:00,
2013-09-06 04:55:00,61.0,60.4,29.97,South,170,0.0,0.0,98,0.01,,---,0.88,VWS V14.01,2013-09-06 11:55:00,
2013-09-06 05:00:00,60.9,60.3,29.97,South,171,0.0,0.0,98,0.01,,---,0.88,VWS V14.01,2013-09-06 12:00:00,
2013-09-06 05:05:00,60.9,60.0,29.96,South,169,0.0,0.0,97,0.01,,---,0.88,VWS V14.01,2013-09-06 12:05:00,
2013-09-06 05:10:00,60.9,60.0,29.96,South,169,0.0,0.0,97,0.01,,---,0.88,VWS V14.01,2013-09-06 12:10:00,
2013-09-06 05:15:00,61.0,60.2,29.96,South,169,0.0,0.0,97,0.01,,---,0.88,VWS V14.01,2013-09-06 12:15:00,
2013-09-06 05:20:00,61.0,60.2,29.97,South,169,0.0,0.0,97,0.00,,---,0.88,VWS V14.01,2013-09-06 12:20:00,
2013-09-06 05:25:00,61.1,60.2,29.97,South,169,0.0,0.0,97,0.00,,---,0.88,VWS V14.01,2013-09-06 12:25:00,
2013-09-06 05:30:00,61.1,60.2,29.97,South,169,0.0,0.0,97,0.00,,---,0.88,VWS V14.01,2013-09-06 12:30:00,
2013-09-06 05:35:00,61.1,60.2,29.97,South,169,0.0,0.0,97,0.00,,---,0.88,VWS V14.01,2013-09-06 12:35:00,
2013-09-06 05:40:00,61.1,60.2,29.97,South,169,0.0,0.0,97,0.00,,---,0.88,VWS V14.01,2013-09-06 12:40:00,
2013-09-06 05:45:00,61.2,60.3,29.97,South,169,0.0,0.0,97,0.00,,---,0.88,VWS V14.01,2013-09-06 12:45:00,
2013-09-06 05:50:00,61.2,60.3,29.97,South,169,0.0,0.0,97,0.00,,---,0.88,VWS V14.01,2013-09-06 12:50:00,
2013-09-06 05:55:00,61.2,60.3,29.97,South,169,0.0,0.0,97,0.00,,---,0.88,VWS V14.01,2013-09-06 12:55:00,
2013-09-06 06:00:00,61.2,60.3,29.98,South,169,0.0,0.0,97,0.00,,---,0.88,VWS V14.01,2013-09-06 13:00:00,
2013-09-06 06:05:00,61.2,60.3,29.98,South,169,0.0,0.0,97,0.00,,---,0.88,VWS V14.01,2013-09-06 13:05:00,
2013-09-06 06:10:00,61.3,60.4,29.98,South,169,0.0,0.0,97,0.00,,---,0.88,VWS V14.01,2013-09-06 13:10:00,
2013-09-06 06:15:00,61.3,60.4,29.98,South,169,0.0,0.0,97,0.00,,---,0.88,VWS V14.01,2013-09-06 13:15:00,
2013-09-06 06:20:00,61.3,60.4,29.98,South,169,0.0,0.0,97,0.00,,---,0.88,VWS V14.01,2013-09-06 13:20:00,
2013-09-06 06:25:00,61.4,60.5,29.98,South,169,0.0,0.0,97,0.00,,---,0.88,VWS V14.01,2013-09-06 13:25:00,
2013-09-06 06:30:00,61.4,60.5,29.98,South,169,0.0,0.0,97,0.00,,---,0.88,VWS V14.01,2013-09-06 13:30:00,
2013-09-06 06:35:00,61.4,60.5,29.98,South,169,0.0,0.0,97,0.00,,---,0.88,VWS V14.01,2013-09-06 13:35:00,
2013-09-06 06:40:00,61.4,60.5,29.98,South,169,0.0,0.0,97,0.00,,---,0.88,VWS V14.01,2013-09-06 13:40:00,
2013-09-06 06:45:00,61.4,60.5,29.99,South,169,0.0,0.0,97,0.00,,---,0.88,VWS V14.01,2013-09-06 13:45:00,
2013-09-06 06:50:00,61.5,60.6,29.99,South,169,0.0,0.0,97,0.00,,---,0.88,VWS V14.01,2013-09-06 13:50:00,
2013-09-06 06:55:00,61.6,60.7,29.99,South,169,0.0,0.0,97,0.00,,---,0.88,VWS V14.01,2013-09-06 13:55:00,
2013-09-06 07:00:00,61.6,60.7,29.99,South,169,0.0,0.0,97,0.00,,---,0.88,VWS V14.01,2013-09-06 14:00:00,
2013-09-06 07:05:00,61.5,60.6,29.99,South,169,0.0,0.0,97,0.00,,---,0.88,VWS V14.01,2013-09-06 14:05:00,
2013-09-06 07:10:00,61.4,60.5,29.99,South,169,0.0,0.0,97,0.00,,---,0.88,VWS V14.01,2013-09-06 14:10:00,
2013-09-06 07:15:00,61.4,60.5,30.00,South,169,0.0,0.0,97,0.00,,---,0.88,VWS V14.01,2013-09-06 14:15:00,
2013-09-06 07:20:00,61.4,60.5,30.00,SSW,195,0.0,0.0,97,0.00,,---,0.88,VWS V14.01,2013-09-06 14:20:00,
2013-09-06 07:25:00,61.3,60.4,30.00,South,179,0.0,0.0,97,0.00,,---,0.88,VWS V14.01,2013-09-06 14:25:00,
2013-09-06 07:30:00,61.3,60.4,30.00,South,169,0.0,0.0,97,0.00,,---,0.88,VWS V14.01,2013-09-06 14:30:00,
2013-09-06 07:35:00,61.3,60.4,30.00,SSE,167,0.0,0.0,97,0.00,,---,0.88,VWS V14.01,2013-09-06 14:35:00,
2013-09-06 07:40:00,61.3,60.4,30.00,South,169,0.0,0.0,97,0.00,,---,0.88,VWS V14.01,2013-09-06 14:40:00,
2013-09-06 07:45:00,61.2,60.3,30.00,South,172,0.0,0.0,97,0.00,,---,0.88,VWS V14.01,2013-09-06 14:45:00,
2013-09-06 07:50:00,61.1,60.2,30.00,South,172,0.0,0.0,97,0.00,,---,0.88,VWS V14.01,2013-09-06 14:50:00,
2013-09-06 07:55:00,61.2,60.3,30.00,South,172,0.0,0.0,97,0.00,,---,0.88,VWS V14.01,2013-09-06 14:55:00,
2013-09-06 08:00:00,61.3,60.4,30.00,SE,135,0.0,0.0,97,0.01,,---,0.89,VWS V14.01,2013-09-06 15:00:00,
2013-09-06 08:05:00,61.3,60.4,30.00,SE,138,0.0,0.0,97,0.02,,---,0.90,VWS V14.01,2013-09-06 15:05:00,
2013-09-06 08:10:00,61.3,60.4,30.01,SE,146,0.0,0.0,97,0.03,,---,0.91,VWS V14.01,2013-09-06 15:10:00,
2013-09-06 08:15:00,61.3,60.4,30.01,SSE,147,0.0,0.0,97,0.03,,---,0.91,VWS V14.01,2013-09-06 15:15:00,
2013-09-06 08:20:00,61.3,60.4,30.01,SSE,148,0.0,0.0,97,0.03,,---,0.91,VWS V14.01,2013-09-06 15:20:00,
2013-09-06 08:25:00,61.3,60.4,30.01,SSE,148,0.0,0.0,97,0.03,,---,0.91,VWS V14.01,2013-09-06 15:25:00,
2013-09-06 08:30:00,61.2,60.3,30.01,West,262,0.0,0.0,97,0.03,,---,0.91,VWS V14.01,2013-09-06 15:30:00,
2013-09-06 08:35:00,61.2,60.6,30.01,West,262,0.0,0.0,98,0.03,,---,0.91,VWS V14.01,2013-09-06 15:35:00,
2013-09-06 08:40:00,61.2,60.6,30.02,South,169,0.0,0.0,98,0.04,,---,0.92,VWS V14.01,2013-09-06 15:40:00,
2013-09-06 08:45:00,61.3,60.7,30.02,SSE,164,0.0,0.0,98,0.04,,---,0.92,VWS V14.01,2013-09-06 15:45:00,
2013-09-06 08:50:00,61.3,60.7,30.02,SSE,165,0.0,0.0,98,0.04,,---,0.92,VWS V14.01,2013-09-06 15:50:00,
2013-09-06 08:55:00,61.4,60.8,30.02,South,173,0.0,0.0,98,0.04,,---,0.92,VWS V14.01,2013-09-06 15:55:00,
2013-09-06 09:00:00,61.4,60.8,30.02,SW,223,0.0,0.0,98,0.04,,---,0.92,VWS V14.01,2013-09-06 16:00:00,
2013-09-06 09:05:00,61.5,60.9,30.02,WSW,246,0.0,0.0,98,0.03,,---,0.92,VWS V14.01,2013-09-06 16:05:00,
2013-09-06 09:10:00,61.6,61.0,30.02,WSW,249,0.0,0.0,98,0.03,,---,0.92,VWS V14.01,2013-09-06 16:10:00,
2013-09-06 09:15:00,61.6,61.0,30.02,WSW,249,0.0,0.0,98,0.03,,---,0.92,VWS V14.01,2013-09-06 16:15:00,
2013-09-06 09:20:00,61.7,60.8,30.02,WSW,249,0.0,0.0,97,0.01,,---,0.92,VWS V14.01,2013-09-06 16:20:00,
2013-09-06 09:25:00,61.7,60.8,30.02,WSW,256,0.0,0.0,97,0.01,,---,0.92,VWS V14.01,2013-09-06 16:25:00,
2013-09-06 09:30:00,61.8,60.9,30.02,West,260,0.0,0.0,97,0.01,,---,0.92,VWS V14.01,2013-09-06 16:30:00,
2013-09-06 09:35:00,61.8,60.9,30.03,West,262,0.0,0.0,97,0.01,,---,0.92,VWS V14.01,2013-09-06 16:35:00,
2013-09-06 09:40:00,61.6,60.7,30.03,West,275,0.0,0.0,97,0.02,,---,0.93,VWS V14.01,2013-09-06 16:40:00,
2013-09-06 09:45:00,61.3,60.4,30.03,West,268,0.0,0.0,97,0.02,,---,0.93,VWS V14.01,2013-09-06 16:45:00,
2013-09-06 09:50:00,61.2,60.3,30.03,West,268,0.0,0.0,97,0.01,,---,0.93,VWS V14.01,2013-09-06 16:50:00,
2013-09-06 09:55:00,61.1,60.5,30.03,West,268,0.0,0.0,98,0.01,,---,0.93,VWS V14.01,2013-09-06 16:55:00,
2013-09-06 10:00:00,61.0,60.4,30.03,West,268,0.0,0.0,98,0.01,,---,0.93,VWS V14.01,2013-09-06 17:00:00,
2013-09-06 10:05:00,61.0,60.4,30.03,West,268,0.0,0.0,98,0.01,,---,0.93,VWS V14.01,2013-09-06 17:05:00,
2013-09-06 10:10:00,61.2,60.6,30.03,West,268,0.0,0.0,98,0.01,,---,0.93,VWS V14.01,2013-09-06 17:10:00,
2013-09-06 10:15:00,61.3,60.7,30.03,West,268,0.0,0.0,98,0.01,,---,0.93,VWS V14.01,2013-09-06 17:15:00,
2013-09-06 10:20:00,61.3,60.7,30.03,West,267,0.0,0.0,98,0.01,,---,0.93,VWS V14.01,2013-09-06 17:20:00,
2013-09-06 10:25:00,61.5,60.9,30.03,West,267,0.0,0.0,98,0.01,,---,0.93,VWS V14.01,2013-09-06 17:25:00,
2013-09-06 10:30:00,61.6,61.0,30.03,West,267,0.0,0.0,98,0.02,,---,0.94,VWS V14.01,2013-09-06 17:30:00,
2013-09-06 10:35:00,61.6,61.0,30.03,West,267,0.0,0.0,98,0.02,,---,0.94,VWS V14.01,2013-09-06 17:35:00,
2013-09-06 10:40:00,61.7,61.1,30.03,West,267,0.0,0.0,98,0.02,,---,0.94,VWS V14.01,2013-09-06 17:40:00,
2013-09-06 10:45:00,61.8,61.2,30.03,West,266,0.0,0.0,98,0.02,,---,0.94,VWS V14.01,2013-09-06 17:45:00,
2013-09-06 10:50:00,62.0,61.4,30.04,West,266,0.0,0.0,98,0.01,,---,0.94,VWS V14.01,2013-09-06 17:50:00,
2013-09-06 10:55:00,62.1,61.5,30.04,West,266,0.0,0.0,98,0.01,,---,0.94,VWS V14.01,2013-09-06 17:55:00,
2013-09-06 11:00:00,62.1,61.5,30.03,West,263,0.0,0.0,98,0.02,,---,0.95,VWS V14.01,2013-09-06 18:00:00,
2013-09-06 11:05:00,62.1,61.5,30.04,WSW,254,0.0,0.0,98,0.02,,---,0.95,VWS V14.01,2013-09-06 18:05:00,
2013-09-06 11:10:00,62.2,61.6,30.05,WSW,254,0.0,0.0,98,0.02,,---,0.95,VWS V14.01,2013-09-06 18:10:00,
2013-09-06 11:15:00,62.4,61.8,30.04,WSW,254,0.0,0.0,98,0.02,,---,0.95,VWS V14.01,2013-09-06 18:15:00,
2013-09-06 11:20:00,62.5,61.9,30.04,WSW,254,0.0,0.0,98,0.03,,---,0.96,VWS V14.01,2013-09-06 18:20:00,
2013-09-06 11:25:00,62.6,62.6,30.04,WSW,254,0.0,0.0,100,0.03,,---,0.96,VWS V14.01,2013-09-06 18:25:00,
2013-09-06 11:30:00,62.7,61.8,30.04,WSW,249,0.0,0.0,97,0.03,,---,0.96,VWS V14.01,2013-09-06 18:30:00,
2013-09-06 11:35:00,62.7,61.8,30.04,West,260,0.0,0.0,97,0.02,,---,0.96,VWS V14.01,2013-09-06 18:35:00,
2013-09-06 11:40:00,62.8,61.9,30.05,WSW,255,0.0,0.0,97,0.02,,---,0.96,VWS V14.01,2013-09-06 18:40:00,
2013-09-06 11:45:00,62.4,61.2,30.05,WSW,257,0.0,0.0,96,0.02,,---,0.96,VWS V14.01,2013-09-06 18:45:00,
2013-09-06 11:50:00,62.3,61.2,30.06,NW,321,0.0,0.0,96,0.02,,---,0.96,VWS V14.01,2013-09-06 18:50:00,
2013-09-06 11:55:00,61.8,60.7,30.06,NW,311,0.0,0.0,96,0.02,,---,0.96,VWS V14.01,2013-09-06 18:55:00,
2013-09-06 12:00:00,61.8,60.9,30.06,WNW,285,0.0,0.0,97,0.02,,---,0.96,VWS V14.01,2013-09-06 19:00:00,
2013-09-06 12:05:00,61.5,60.6,30.06,West,259,0.0,0.0,97,0.01,,---,0.96,VWS V14.01,2013-09-06 19:05:00,
2013-09-06 12:10:00,61.3,60.4,30.05,West,270,0.0,0.0,97,0.01,,---,0.96,VWS V14.01,2013-09-06 19:10:00,
2013-09-06 12:15:00,61.1,60.2,30.06,West,260,0.0,0.0,97,0.01,,---,0.96,VWS V14.01,2013-09-06 19:15:00,
2013-09-06 12:20:00,61.3,60.7,30.06,West,279,0.0,0.0,98,0.01,,---,0.96,VWS V14.01,2013-09-06 19:20:00,
2013-09-06 12:25:00,61.3,60.7,30.06,West,264,0.0,0.0,98,0.01,,---,0.96,VWS V14.01,2013-09-06 19:25:00,
2013-09-06 12:30:00,61.5,60.9,30.06,West,264,0.0,0.0,98,0.01,,---,0.96,VWS V14.01,2013-09-06 19:30:00,
2013-09-06 12:35:00,61.9,61.3,30.06,West,264,0.0,0.0,98,0.00,,---,0.96,VWS V14.01,2013-09-06 19:35:00,
2013-09-06 12:40:00,62.1,61.5,30.06,West,263,0.0,0.0,98,0.00,,---,0.96,VWS V14.01,2013-09-06 19:40:00,
2013-09-06 12:45:00,62.5,61.9,30.06,SSE,150,0.0,0.0,98,0.00,,---,0.96,VWS V14.01,2013-09-06 19:45:00,
2013-09-06 12:50:00,63.2,62.9,30.05,SSE,150,0.0,0.0,99,0.00,,---,0.96,VWS V14.01,2013-09-06 19:50:00,
2013-09-06 12:55:00,63.6,63.0,30.05,SSE,150,0.0,0.0,98,0.00,,---,0.96,VWS V14.01,2013-09-06 19:55:00,
2013-09-06 13:00:00,63.7,62.5,30.05,SSE,155,0.0,0.0,96,0.00,,---,0.96,VWS V14.01,2013-09-06 20:00:00,
2013-09-06 13:05:00,63.9,62.4,30.05,South,172,0.0,0.0,95,0.00,,---,0.96,VWS V14.01,2013-09-06 20:05:00,
2013-09-06 13:10:00,64.4,62.6,30.05,South,180,0.0,0.0,94,0.01,,---,0.97,VWS V14.01,2013-09-06 20:10:00,
2013-09-06 13:15:00,65.1,63.3,30.05,SSE,167,0.0,0.0,94,0.01,,---,0.97,VWS V14.01,2013-09-06 20:15:00,
2013-09-06 13:20:00,65.4,63.0,30.05,SSE,167,0.0,0.0,92,0.01,,---,0.97,VWS V14.01,2013-09-06 20:20:00,
2013-09-06 13:25:00,65.7,63.0,30.05,South,188,0.0,0.0,91,0.01,,---,0.97,VWS V14.01,2013-09-06 20:25:00,
2013-09-06 13:30:00,65.8,62.8,30.05,West,272,0.0,0.0,90,0.01,,---,0.97,VWS V14.01,2013-09-06 20:30:00,
2013-09-06 13:35:00,66.0,62.7,30.05,West,269,0.0,0.0,89,0.01,,---,0.97,VWS V14.01,2013-09-06 20:35:00,
2013-09-06 13:40:00,66.1,62.5,30.05,SSE,160,0.0,0.0,88,0.01,,---,0.97,VWS V14.01,2013-09-06 20:40:00,
2013-09-06 13:45:00,65.8,61.8,30.06,WSW,256,0.0,0.0,87,0.01,,---,0.97,VWS V14.01,2013-09-06 20:45:00,
2013-09-06 13:50:00,64.7,61.4,30.06,WSW,258,0.0,0.0,89,0.01,,---,0.97,VWS V14.01,2013-09-06 20:50:00,
2013-09-06 13:55:00,64.2,61.2,30.05,WSW,238,0.0,0.0,90,0.01,,---,0.97,VWS V14.01,2013-09-06 20:55:00,
2013-09-06 14:00:00,64.0,61.0,30.06,WNW,292,0.0,0.0,90,0.01,,---,0.97,VWS V14.01,2013-09-06 21:00:00,
2013-09-06 14:05:00,64.0,61.0,30.06,West,267,0.0,0.0,90,0.01,,---,0.97,VWS V14.01,2013-09-06 21:05:00,
2013-09-06 14:10:00,64.1,61.1,30.06,West,267,0.0,0.0,90,0.01,,---,0.97,VWS V14.01,2013-09-06 21:10:00,
2013-09-06 14:15:00,64.4,61.7,30.06,West,267,0.0,0.0,91,0.01,,---,0.97,VWS V14.01,2013-09-06 21:15:00,
2013-09-06 14:20:00,64.9,61.9,30.07,West,267,0.0,0.0,90,0.00,,---,0.97,VWS V14.01,2013-09-06 21:20:00,
2013-09-06 14:25:00,65.2,61.9,30.07,WNW,283,0.0,0.0,89,0.00,,---,0.97,VWS V14.01,2013-09-06 21:25:00,
2013-09-06 14:30:00,65.2,61.2,30.07,WNW,292,0.0,0.0,87,0.00,,---,0.97,VWS V14.01,2013-09-06 21:30:00,
2013-09-06 14:35:00,65.6,61.6,30.07,WNW,286,0.0,0.0,87,0.00,,---,0.97,VWS V14.01,2013-09-06 21:35:00,
2013-09-06 14:40:00,65.9,61.6,30.06,West,275,0.0,0.0,86,0.00,,---,0.97,VWS V14.01,2013-09-06 21:40:00,
2013-09-06 14:45:00,66.5,62.2,30.06,West,275,0.0,0.0,86,0.00,,---,0.97,VWS V14.01,2013-09-06 21:45:00,
2013-09-06 14:50:00,67.4,62.7,30.06,West,278,0.0,0.0,85,0.00,,---,0.97,VWS V14.01,2013-09-06 21:50:00,
2013-09-06 14:55:00,68.0,63.0,30.06,West,275,0.0,0.0,84,0.00,,---,0.97,VWS V14.01,2013-09-06 21:55:00,
2013-09-06 15:00:00,68.3,62.9,30.07,NW,319,0.0,0.0,83,0.00,,---,0.97,VWS V14.01,2013-09-06 22:00:00,
2013-09-06 15:05:00,68.1,62.4,30.06,WSW,250,0.0,0.0,82,0.00,,---,0.97,VWS V14.01,2013-09-06 22:05:00,
2013-09-06 15:10:00,67.1,61.8,30.06,West,265,0.0,0.0,83,0.00,,---,0.97,VWS V14.01,2013-09-06 22:10:00,
2013-09-06 15:15:00,66.8,61.8,30.06,WSW,252,0.0,0.0,84,0.00,,---,0.97,VWS V14.01,2013-09-06 22:15:00,
2013-09-06 15:20:00,67.2,62.2,30.06,WNW,290,0.0,0.0,84,0.00,,---,0.97,VWS V14.01,2013-09-06 22:20:00,
2013-09-06 15:25:00,67.5,62.5,30.07,WNW,291,0.0,0.0,84,0.00,,---,0.97,VWS V14.01,2013-09-06 22:25:00,
2013-09-06 15:30:00,68.2,62.8,30.07,West,268,0.0,0.0,83,0.00,,---,0.97,VWS V14.01,2013-09-06 22:30:00,
2013-09-06 15:35:00,69.2,63.1,30.07,WNW,302,0.0,0.0,81,0.00,,---,0.97,VWS V14.01,2013-09-06 22:35:00,
2013-09-06 15:40:00,69.4,63.0,30.07,SSW,196,0.0,0.0,80,0.00,,---,0.97,VWS V14.01,2013-09-06 22:40:00,
2013-09-06 15:45:00,69.7,62.9,30.08,West,270,0.0,0.0,79,0.00,,---,0.97,VWS V14.01,2013-09-06 22:45:00,
2013-09-06 15:50:00,69.8,62.6,30.07,West,278,0.0,0.0,78,0.00,,---,0.97,VWS V14.01,2013-09-06 22:50:00,
2013-09-06 15:55:00,69.3,62.5,30.07,West,271,0.0,0.0,79,0.00,,---,0.97,VWS V14.01,2013-09-06 22:55:00,
2013-09-06 16:00:00,69.5,63.1,30.07,SW,234,0.0,0.0,80,0.00,,---,0.97,VWS V14.01,2013-09-06 23:00:00,
2013-09-06 16:05:00,69.8,62.6,30.07,WNW,286,0.0,0.0,78,0.00,,---,0.97,VWS V14.01,2013-09-06 23:05:00,
2013-09-06 16:10:00,69.5,62.3,30.07,WSW,258,0.0,0.0,78,0.00,,---,0.97,VWS V14.01,2013-09-06 23:10:00,
2013-09-06 16:15:00,68.7,62.6,30.07,West,273,0.0,0.0,81,0.00,,---,0.97,VWS V14.01,2013-09-06 23:15:00,
2013-09-06 16:20:00,68.0,62.7,30.07,WSW,248,0.0,0.0,83,0.00,,---,0.97,VWS V14.01,2013-09-06 23:20:00,
2013-09-06 16:25:00,67.7,62.7,30.07,WNW,300,0.0,0.0,84,0.00,,---,0.97,VWS V14.01,2013-09-06 23:25:00,
2013-09-06 16:30:00,68.0,62.3,30.07,West,269,0.0,0.0,82,0.00,,---,0.97,VWS V14.01,2013-09-06 23:30:00,
2013-09-06 16:35:00,68.2,62.5,30.07,West,275,0.0,0.0,82,0.00,,---,0.97,VWS V14.01,2013-09-06 23:35:00,
2013-09-06 16:40:00,68.5,62.5,30.08,WNW,300,0.0,0.0,81,0.00,,---,0.97,VWS V14.01,2013-09-06 23:40:00,
2013-09-06 16:45:00,68.6,62.5,30.08,West,267,0.0,0.0,81,0.00,,---,0.97,VWS V14.01,2013-09-06 23:45:00,
2013-09-06 16:50:00,68.8,62.7,30.08,WSW,240,0.0,0.0,81,0.00,,---,0.97,VWS V14.01,2013-09-06 23:50:00,
2013-09-06 16:55:00,69.2,62.8,30.08,WNW,300,0.0,0.0,80,0.00,,---,0.97,VWS V14.01,2013-09-06 23:55:00,
2013-09-06 17:00:00,69.6,63.2,30.08,WNW,286,0.0,0.0,80,0.00,,---,0.97,VWS V14.01,2013-09-07 00:00:00,
2013-09-06 17:05:00,69.9,63.5,30.08,NW,322,0.0,0.0,80,0.00,,---,0.97,VWS V14.01,2013-09-07 00:05:00,
2013-09-06 17:10:00,70.2,63.4,30.08,WNW,296,0.0,0.0,79,0.00,,---,0.97,VWS V14.01,2013-09-07 00:10:00,
2013-09-06 17:15:00,70.1,62.9,30.08,West,281,0.0,0.0,78,0.00,,---,0.97,VWS V14.01,2013-09-07 00:15:00,
2013-09-06 17:20:00,70.0,63.2,30.08,West,278,0.0,0.0,79,0.00,,---,0.97,VWS V14.01,2013-09-07 00:20:00,
2013-09-06 17:25:00,69.4,63.0,30.08,North,9,0.0,0.0,80,0.00,,---,0.97,VWS V14.01,2013-09-07 00:25:00,
2013-09-06 17:30:00,69.3,62.9,30.08,WNW,292,0.0,0.0,80,0.00,,---,0.97,VWS V14.01,2013-09-07 00:30:00,
2013-09-06 17:35:00,69.3,62.9,30.08,NW,304,0.0,0.0,80,0.00,,---,0.97,VWS V14.01,2013-09-07 00:35:00,
2013-09-06 17:40:00,69.2,62.8,30.08,NNW,334,0.0,0.0,80,0.00,,---,0.97,VWS V14.01,2013-09-07 00:40:00,
2013-09-06 17:45:00,68.7,62.6,30.08,West,275,0.0,0.0,81,0.00,,---,0.97,VWS V14.01,2013-09-07 00:45:00,
2013-09-06 17:50:00,68.5,62.8,30.08,NW,319,0.0,0.0,82,0.00,,---,0.97,VWS V14.01,2013-09-07 00:50:00,
2013-09-06 17:55:00,68.4,63.0,30.08,NW,308,0.0,0.0,83,0.00,,---,0.97,VWS V14.01,2013-09-07 00:55:00,
2013-09-06 18:00:00,68.4,63.0,30.08,NW,308,0.0,0.0,83,0.00,,---,0.97,VWS V14.01,2013-09-07 01:00:00,
2013-09-06 18:05:00,68.2,62.8,30.08,NNW,336,0.0,0.0,83,0.00,,---,0.97,VWS V14.01,2013-09-07 01:05:00,
2013-09-06 18:10:00,68.0,62.7,30.08,WSW,250,0.0,0.0,83,0.00,,---,0.97,VWS V14.01,2013-09-07 01:10:00,
2013-09-06 18:15:00,67.8,62.8,30.08,WSW,238,0.0,0.0,84,0.00,,---,0.97,VWS V14.01,2013-09-07 01:15:00,
2013-09-06 18:20:00,67.6,62.6,30.08,NW,304,0.0,0.0,84,0.00,,---,0.97,VWS V14.01,2013-09-07 01:20:00,
2013-09-06 18:25:00,67.4,62.7,30.08,South,175,0.0,0.0,85,0.00,,---,0.97,VWS V14.01,2013-09-07 01:25:00,
2013-09-06 18:30:00,67.2,62.2,30.09,South,184,0.0,0.0,84,0.00,,---,0.97,VWS V14.01,2013-09-07 01:30:00,
2013-09-06 18:35:00,67.1,62.1,30.09,SSE,150,0.0,0.0,84,0.00,,---,0.97,VWS V14.01,2013-09-07 01:35:00,
2013-09-06 18:40:00,66.9,62.2,30.09,SSE,153,0.0,0.0,85,0.00,,---,0.97,VWS V14.01,2013-09-07 01:40:00,
2013-09-06 18:45:00,66.9,62.2,30.08,South,169,0.0,0.0,85,0.00,,---,0.97,VWS V14.01,2013-09-07 01:45:00,
2013-09-06 18:50:00,67.1,62.5,30.08,SSE,168,0.0,0.0,85,0.00,,---,0.97,VWS V14.01,2013-09-07 01:50:00,
2013-09-06 18:55:00,67.2,62.2,30.08,SSW,195,0.0,0.0,84,0.00,,---,0.97,VWS V14.01,2013-09-07 01:55:00,
2013-09-06 19:00:00,66.8,62.2,30.09,SE,138,0.0,0.0,85,0.00,,---,0.97,VWS V14.01,2013-09-07 02:00:00,
2013-09-06 19:05:00,66.7,62.0,30.09,West,260,0.0,0.0,85,0.00,,---,0.97,VWS V14.01,2013-09-07 02:05:00,
2013-09-06 19:10:00,66.5,61.9,30.09,SSE,161,0.0,0.0,85,0.00,,---,0.97,VWS V14.01,2013-09-07 02:10:00,
2013-09-06 19:15:00,66.5,61.9,30.09,SSE,161,0.0,0.0,85,0.00,,---,0.97,VWS V14.01,2013-09-07 02:15:00,
2013-09-06 19:20:00,66.3,61.7,30.09,SSE,168,0.0,0.0,85,0.00,,---,0.97,VWS V14.01,2013-09-07 02:20:00,
2013-09-06 19:25:00,66.2,61.6,30.09,SW,225,0.0,0.0,85,0.00,,---,0.97,VWS V14.01,2013-09-07 02:25:00,
2013-09-06 19:30:00,66.0,61.4,30.09,SSW,200,0.0,0.0,85,0.00,,---,0.97,VWS V14.01,2013-09-07 02:30:00,
2013-09-06 19:35:00,65.9,61.3,30.09,SSE,164,0.0,0.0,85,0.00,,---,0.97,VWS V14.01,2013-09-07 02:35:00,
2013-09-06 19:40:00,65.7,61.1,30.09,South,180,0.0,0.0,85,0.00,,---,0.97,VWS V14.01,2013-09-07 02:40:00,
2013-09-06 19:45:00,65.7,60.7,30.09,SW,218,0.0,0.0,84,0.00,,---,0.97,VWS V14.01,2013-09-07 02:45:00,
2013-09-06 19:50:00,65.6,60.6,30.09,SSW,196,0.0,0.0,84,0.00,,---,0.97,VWS V14.01,2013-09-07 02:50:00,
2013-09-06 19:55:00,65.4,60.5,30.09,SSE,166,0.0,0.0,84,0.00,,---,0.97,VWS V14.01,2013-09-07 02:55:00,
2013-09-06 20:00:00,65.3,60.7,30.09,SSE,155,0.0,0.0,85,0.00,,---,0.97,VWS V14.01,2013-09-07 03:00:00,
2013-09-06 20:05:00,65.2,60.6,30.09,NW,321,0.0,0.0,85,0.00,,---,0.97,VWS V14.01,2013-09-07 03:05:00,
2013-09-06 20:10:00,65.2,60.2,30.09,WNW,293,0.0,0.0,84,0.00,,---,0.97,VWS V14.01,2013-09-07 03:10:00,
2013-09-06 20:15:00,65.1,60.2,30.09,SSE,154,0.0,0.0,84,0.00,,---,0.97,VWS V14.01,2013-09-07 03:15:00,
2013-09-06 20:20:00,65.0,60.0,30.09,South,186,0.0,0.0,84,0.00,,---,0.97,VWS V14.01,2013-09-07 03:20:00,
2013-09-06 20:25:00,64.9,60.0,30.10,South,188,0.0,0.0,84,0.00,,---,0.97,VWS V14.01,2013-09-07 03:25:00,
2013-09-06 20:30:00,64.9,60.3,30.10,SSW,207,0.0,0.0,85,0.00,,---,0.97,VWS V14.01,2013-09-07 03:30:00,
2013-09-06 20:35:00,64.8,60.2,30.10,SSW,198,0.0,0.0,85,0.00,,---,0.97,VWS V14.01,2013-09-07 03:35:00,
2013-09-06 20:40:00,64.8,59.9,30.10,South,178,0.0,0.0,84,0.00,,---,0.97,VWS V14.01,2013-09-07 03:40:00,
2013-09-06 20:45:00,64.8,59.9,30.11,SSE,167,0.0,0.0,84,0.00,,---,0.97,VWS V14.01,2013-09-07 03:45:00,
2013-09-06 20:50:00,64.8,59.9,30.11,SSW,196,0.0,0.0,84,0.00,,---,0.97,VWS V14.01,2013-09-07 03:50:00,
2013-09-06 20:55:00,64.8,59.9,30.11,South,190,0.0,0.0,84,0.00,,---,0.97,VWS V14.01,2013-09-07 03:55:00,
2013-09-06 21:00:00,64.8,59.9,30.10,SSE,159,0.0,0.0,84,0.00,,---,0.97,VWS V14.01,2013-09-07 04:00:00,
2013-09-06 21:01:00,64.8,59.9,30.10,SSW,199,0.0,0.0,84,0.00,,---,0.97,VWS V14.01,2013-09-07 04:01:00,
2013-09-06 21:06:00,64.8,59.9,30.11,SE,136,0.0,0.0,84,0.00,,---,0.97,VWS V14.01,2013-09-07 04:06:00,
2013-09-06 21:11:00,64.9,60.0,30.11,SE,130,0.0,0.0,84,0.00,,---,0.97,VWS V14.01,2013-09-07 04:11:00,
2013-09-06 21:15:00,65.0,60.0,30.10,SSE,151,0.0,0.0,84,0.00,,---,0.97,VWS V14.01,2013-09-07 04:15:00,
2013-09-06 21:16:00,65.0,60.0,30.10,SSE,151,0.0,0.0,84,0.00,,---,0.97,VWS V14.01,2013-09-07 04:16:00,
2013-09-06 21:21:00,64.9,60.3,30.11,SSW,197,0.0,0.0,85,0.00,,---,0.97,VWS V14.01,2013-09-07 04:21:00,
2013-09-06 21:26:00,64.9,60.3,30.11,SSE,158,0.0,0.0,85,0.00,,---,0.97,VWS V14.01,2013-09-07 04:26:00,
2013-09-06 21:30:00,64.8,60.2,30.11,South,169,0.0,0.0,85,0.00,,---,0.97,VWS V14.01,2013-09-07 04:30:00,
2013-09-06 21:31:00,64.8,60.2,30.11,South,169,0.0,0.0,85,0.00,,---,0.97,VWS V14.01,2013-09-07 04:31:00,
2013-09-06 21:36:00,64.8,60.5,30.11,SSE,160,0.0,0.0,86,0.00,,---,0.97,VWS V14.01,2013-09-07 04:36:00,
2013-09-06 21:41:00,64.8,60.5,30.11,SE,135,0.0,0.0,86,0.00,,---,0.97,VWS V14.01,2013-09-07 04:41:00,
2013-09-06 21:45:00,64.8,60.5,30.11,SSE,159,0.0,0.0,86,0.00,,---,0.97,VWS V14.01,2013-09-07 04:45:00,
2013-09-06 21:46:00,64.8,60.5,30.11,SSE,159,0.0,0.0,86,0.00,,---,0.97,VWS V14.01,2013-09-07 04:46:00,
2013-09-06 21:51:00,64.9,60.9,30.11,SSE,165,0.0,0.0,87,0.00,,---,0.97,VWS V14.01,2013-09-07 04:51:00,
2013-09-06 21:56:00,64.8,60.8,30.11,SSE,165,0.0,0.0,87,0.00,,---,0.97,VWS V14.01,2013-09-07 04:56:00,
2013-09-06 22:00:00,64.8,60.8,30.11,SSE,166,0.0,0.0,87,0.00,,---,0.97,VWS V14.01,2013-09-07 05:00:00,
2013-09-06 22:01:00,64.8,60.8,30.11,SSE,166,0.0,0.0,87,0.00,,---,0.97,VWS V14.01,2013-09-07 05:01:00,
2013-09-06 22:06:00,64.8,61.2,30.12,ESE,108,0.0,0.0,88,0.00,,---,0.97,VWS V14.01,2013-09-07 05:06:00,
2013-09-06 22:11:00,64.8,61.2,30.11,SE,146,0.0,0.0,88,0.00,,---,0.97,VWS V14.01,2013-09-07 05:11:00,
2013-09-06 22:15:00,64.8,61.2,30.11,SSE,151,0.0,0.0,88,0.00,,---,0.97,VWS V14.01,2013-09-07 05:15:00,
2013-09-06 22:16:00,64.8,61.2,30.11,SSE,151,0.0,0.0,88,0.00,,---,0.97,VWS V14.01,2013-09-07 05:16:00,
2013-09-06 22:21:00,64.7,61.4,30.12,SSW,192,0.0,0.0,89,0.00,,---,0.97,VWS V14.01,2013-09-07 05:21:00,
2013-09-06 22:26:00,64.7,61.4,30.12,South,191,0.0,0.0,89,0.00,,---,0.97,VWS V14.01,2013-09-07 05:26:00,
2013-09-06 22:30:00,64.7,61.4,30.12,SSE,153,0.0,0.0,89,0.00,,---,0.97,VWS V14.01,2013-09-07 05:30:00,
2013-09-06 22:31:00,64.7,61.4,30.12,SSE,153,0.0,0.0,89,0.00,,---,0.97,VWS V14.01,2013-09-07 05:31:00,
2013-09-06 22:36:00,64.6,61.3,30.12,South,185,0.0,0.0,89,0.00,,---,0.97,VWS V14.01,2013-09-07 05:36:00,
2013-09-06 22:41:00,64.6,61.6,30.12,ESE,103,0.0,0.0,90,0.00,,---,0.97,VWS V14.01,2013-09-07 05:41:00,
2013-09-06 22:45:00,64.6,61.6,30.12,SE,145,0.0,0.0,90,0.00,,---,0.97,VWS V14.01,2013-09-07 05:45:00,
2013-09-06 22:46:00,64.6,61.6,30.12,SE,145,0.0,0.0,90,0.00,,---,0.97,VWS V14.01,2013-09-07 05:46:00,
2013-09-06 22:51:00,64.6,61.6,30.12,SSE,156,0.0,0.0,90,0.00,,---,0.97,VWS V14.01,2013-09-07 05:51:00,
2013-09-06 22:56:00,64.6,61.6,30.12,SSE,147,0.0,0.0,90,0.00,,---,0.97,VWS V14.01,2013-09-07 05:56:00,
2013-09-06 23:00:00,64.6,61.6,30.12,SE,125,0.0,0.0,90,0.00,,---,0.97,VWS V14.01,2013-09-07 06:00:00,
2013-09-06 23:01:00,64.6,61.6,30.12,SE,125,0.0,0.0,90,0.00,,---,0.97,VWS V14.01,2013-09-07 06:01:00,
2013-09-06 23:06:00,64.5,61.2,30.11,ESE,104,0.0,0.0,89,0.00,,---,0.97,VWS V14.01,2013-09-07 06:06:00,
2013-09-06 23:11:00,64.4,61.1,30.12,SSW,194,0.0,0.0,89,0.00,,---,0.97,VWS V14.01,2013-09-07 06:11:00,
2013-09-06 23:15:00,64.3,61.3,30.12,South,180,0.0,0.0,90,0.00,,---,0.97,VWS V14.01,2013-09-07 06:15:00,
2013-09-06 23:16:00,64.3,61.3,30.12,South,180,0.0,0.0,90,0.00,,---,0.97,VWS V14.01,2013-09-07 06:16:00,
2013-09-06 23:21:00,64.3,61.3,30.12,South,173,0.0,0.0,90,0.00,,---,0.97,VWS V14.01,2013-09-07 06:21:00,
2013-09-06 23:26:00,64.1,61.1,30.12,South,169,0.0,0.0,90,0.00,,---,0.97,VWS V14.01,2013-09-07 06:26:00,
2013-09-06 23:30:00,64.0,61.0,30.12,South,183,0.0,0.0,90,0.00,,---,0.97,VWS V14.01,2013-09-07 06:30:00,
2013-09-06 23:31:00,64.0,61.0,30.12,South,183,0.0,0.0,90,0.00,,---,0.97,VWS V14.01,2013-09-07 06:31:00,
2013-09-06 23:36:00,63.9,60.9,30.12,South,183,0.0,0.0,90,0.00,,---,0.97,VWS V14.01,2013-09-07 06:36:00,
2013-09-06 23:41:00,63.9,60.9,30.12,SSW,198,0.0,0.0,90,0.00,,---,0.97,VWS V14.01,2013-09-07 06:41:00,
2013-09-06 23:45:00,63.8,60.8,30.12,SSW,209,0.0,0.0,90,0.00,,---,0.97,VWS V14.01,2013-09-07 06:45:00,
2013-09-06 23:46:00,63.8,60.8,30.12,SSW,209,0.0,0.0,90,0.00,,---,0.97,VWS V14.01,2013-09-07 06:46:00,
2013-09-06 23:51:00,63.8,60.8,30.12,SSW,210,0.0,0.0,90,0.00,,---,0.97,VWS V14.01,2013-09-07 06:51:00,
2013-09-06 23:56:00,63.7,61.0,30.12,South,190,0.0,0.0,91,0.00,,---,0.97,VWS V14.01,2013-09-07 06:56:00,